Aviation Digital Data Service (ADDS)

Output produced by TAFs form (1609 UTC 24 August 2016)
found at http://aviationweather.gov/adds/tafs/
 
KTCS 241130Z 2412/2512 32006KT P6SM FEW120 SCT250 
     FM241600 07006KT P6SM FEW060 FEW250 
     FM242000 23007KT P6SM SCT060 SCT130 BKN250 
     FM250500 30007KT P6SM FEW060 SCT130 BKN250